createdAt,value
2023-08-11T00:02:02.463Z,102091.38
2023-08-11T00:04:30.400Z,102091.38
2023-08-11T00:06:58.389Z,102085.19
2023-08-11T00:09:27.684Z,102081.63
2023-08-11T00:11:56.429Z,102078.97
2023-08-11T00:14:23.714Z,102089.63
2023-08-11T00:16:50.963Z,102079.84
2023-08-11T00:19:18.258Z,102075.44
2023-08-11T00:21:45.779Z,102082.50
2023-08-11T00:24:13.067Z,102076.31
2023-08-11T00:26:40.306Z,102083.41
2023-08-11T00:29:07.939Z,102082.50
2023-08-11T00:31:36.895Z,102078.97
2023-08-11T00:34:04.524Z,102084.31
2023-08-11T00:36:32.092Z,102078.97
2023-08-11T00:39:01.586Z,102078.97
2023-08-11T00:41:29.168Z,102071.84
2023-08-11T00:43:56.579Z,102078.97
2023-08-11T00:46:25.602Z,102078.97
2023-08-11T00:48:52.988Z,102070.97
2023-08-11T00:51:23.797Z,102078.09
2023-08-11T00:53:52.629Z,102079.00
2023-08-11T00:56:23.646Z,102075.44
2023-08-11T00:58:52.515Z,102078.13
2023-08-11T01:01:20.455Z,102073.69
2023-08-11T01:03:49.084Z,102073.72
2023-08-11T01:06:35.923Z,102075.50
2023-08-11T01:09:13.281Z,102068.38
2023-08-11T01:11:59.993Z,102064.84
2023-08-11T01:15:03.833Z,102063.97
2023-08-11T01:17:34.064Z,102059.53
2023-08-11T01:20:03.874Z,102053.34
2023-08-11T01:22:35.314Z,102059.56
2023-08-11T01:25:03.143Z,102057.78
2023-08-11T01:27:31.558Z,102059.59
2023-08-11T01:29:58.888Z,102048.94
2023-08-11T01:32:26.199Z,102042.75
2023-08-11T01:34:53.601Z,102051.63
2023-08-11T01:37:20.962Z,102049.88
2023-08-11T01:39:48.295Z,102047.19
2023-08-11T01:42:16.578Z,102040.13
2023-08-11T01:44:44.568Z,102043.69
2023-08-11T01:47:12.701Z,102043.69
2023-08-11T01:49:41.159Z,102050.78
2023-08-11T01:52:09.386Z,102042.78
2023-08-11T01:54:37.171Z,102035.69
2023-08-11T01:57:06.649Z,102025.97
2023-08-11T01:59:34.097Z,102030.38
2023-08-11T02:02:01.537Z,102028.63
2023-08-11T02:04:29.653Z,102028.63
2023-08-11T02:06:56.948Z,102032.16
2023-08-11T02:09:24.276Z,102034.78
2023-08-11T02:11:51.553Z,102029.44
2023-08-11T02:14:18.969Z,102031.22
2023-08-11T02:16:46.319Z,102037.44
2023-08-11T02:19:13.618Z,102038.31
2023-08-11T02:21:40.912Z,102037.44
2023-08-11T02:24:08.294Z,102040.94
2023-08-11T02:26:35.637Z,102036.53
2023-08-11T02:29:04.938Z,102033.00
2023-08-11T02:31:34.203Z,102034.75
2023-08-11T02:34:05.017Z,102021.47
2023-08-11T02:36:32.302Z,102023.22
2023-08-11T02:38:59.569Z,102021.47
2023-08-11T02:41:27.169Z,102015.25
2023-08-11T02:43:54.455Z,102010.84
2023-08-11T02:46:21.814Z,102009.03
2023-08-11T02:48:49.180Z,102008.16
2023-08-11T02:51:17.260Z,102001.09
2023-08-11T02:53:45.406Z,102007.25
2023-08-11T02:56:16.434Z,102008.16
2023-08-11T02:58:43.952Z,102008.16
2023-08-11T03:01:11.405Z,102012.56
2023-08-11T03:03:39.271Z,102011.66
2023-08-11T03:06:06.568Z,101996.59
2023-08-11T03:08:33.880Z,102009.00
2023-08-11T03:11:01.327Z,102015.22
2023-08-11T03:13:34.668Z,102005.44
2023-08-11T03:16:02.086Z,102003.69
2023-08-11T03:18:30.464Z,102001.03
2023-08-11T03:21:13.732Z,102007.19
2023-08-11T03:23:46.483Z,102005.44
2023-08-11T03:26:14.730Z,102000.13
2023-08-11T03:28:42.520Z,101999.22
2023-08-11T03:31:11.150Z,101991.25
2023-08-11T03:33:41.840Z,101983.28
2023-08-11T03:36:12.846Z,101981.53
2023-08-11T03:38:40.449Z,101993.03
2023-08-11T03:41:07.797Z,102002.75
2023-08-11T03:43:35.227Z,101998.31
2023-08-11T03:46:02.573Z,101996.56
2023-08-11T03:48:30.079Z,102012.47
2023-08-11T03:51:02.474Z,102007.16
2023-08-11T03:53:31.414Z,102012.47
2023-08-11T03:55:59.075Z,102006.28
2023-08-11T03:58:29.296Z,102011.59
2023-08-11T04:00:56.979Z,102012.44
2023-08-11T04:03:29.342Z,102016.88
2023-08-11T04:05:56.911Z,102015.13
2023-08-11T04:08:24.681Z,102021.31
2023-08-11T04:10:52.286Z,102016.88
2023-08-11T04:13:19.720Z,102019.53
2023-08-11T04:15:51.462Z,102010.69
2023-08-11T04:18:20.572Z,102001.84
2023-08-11T04:20:48.686Z,102007.16
2023-08-11T04:23:16.078Z,101994.78
2023-08-11T04:25:44.525Z,101994.78
2023-08-11T04:28:12.081Z,102000.97
2023-08-11T04:30:39.905Z,102008.06
2023-08-11T04:33:08.844Z,102007.16
2023-08-11T04:35:37.372Z,101998.31
2023-08-11T04:38:06.615Z,101999.22
2023-08-11T04:40:36.674Z,102006.28
2023-08-11T04:43:05.384Z,102001.88
2023-08-11T04:45:37.385Z,102004.53
2023-08-11T04:48:06.241Z,102001.91
2023-08-11T04:50:35.699Z,101993.94
2023-08-11T04:53:03.494Z,101985.09
2023-08-11T04:55:32.376Z,101986.91
2023-08-11T04:58:02.099Z,101993.19
2023-08-11T05:00:30.742Z,101991.38
2023-08-11T05:02:58.867Z,101982.47
2023-08-11T05:05:27.495Z,101981.53
2023-08-11T05:07:55.260Z,101983.19
2023-08-11T05:10:22.726Z,101994.63
2023-08-11T05:12:50.568Z,101989.22
2023-08-11T05:15:17.984Z,101980.28
2023-08-11T05:17:45.397Z,101982.91
2023-08-11T05:20:15.791Z,101992.56
2023-08-11T05:22:44.984Z,101988.91
2023-08-11T05:25:12.902Z,101982.31
2023-08-11T05:27:40.412Z,101980.91
2023-08-11T05:30:09.614Z,101983.31
2023-08-11T05:32:37.254Z,101974.06
2023-08-11T05:35:04.835Z,101974.13
2023-08-11T05:37:32.194Z,101976.97
2023-08-11T05:40:00.090Z,101986.03
2023-08-11T05:42:27.512Z,101987.09
2023-08-11T05:44:54.763Z,101988.13
2023-08-11T05:47:22.144Z,101991.78
2023-08-11T05:49:49.502Z,101979.38
2023-08-11T05:52:16.801Z,101980.06
2023-08-11T05:54:44.110Z,101974.41
2023-08-11T05:57:11.616Z,101968.09
2023-08-11T05:59:39.089Z,101970.78
2023-08-11T06:02:06.613Z,101970.53
2023-08-11T06:04:34.067Z,101970.88
2023-08-11T06:07:01.349Z,101969.31
2023-08-11T06:09:28.726Z,101970.34
2023-08-11T06:11:56.397Z,101972.44
2023-08-11T06:14:23.807Z,101968.88
2023-08-11T06:16:51.041Z,101967.16
2023-08-11T06:19:18.382Z,101959.28
2023-08-11T06:21:46.732Z,101965.72
2023-08-11T06:24:14.073Z,101981.09
2023-08-11T06:26:41.424Z,101966.16
2023-08-11T06:29:09.864Z,101967.22
2023-08-11T06:31:37.164Z,101973.59
2023-08-11T06:34:04.546Z,101973.69
2023-08-11T06:36:32.040Z,101968.34
2023-08-11T06:38:59.373Z,101972.75
2023-08-11T06:41:26.776Z,101972.63
2023-08-11T06:43:55.185Z,101979.44
2023-08-11T06:46:22.668Z,101972.91
2023-08-11T06:48:50.059Z,101968.31
2023-08-11T06:51:17.393Z,101969.19
2023-08-11T06:53:44.720Z,101964.63
2023-08-11T06:56:12.830Z,101958.31
2023-08-11T06:58:40.226Z,101963.69
2023-08-11T07:01:07.796Z,101956.63
2023-08-11T07:03:35.307Z,101959.28
2023-08-11T07:06:03.593Z,101961.00
2023-08-11T07:08:30.915Z,101958.31
2023-08-11T07:10:58.392Z,101966.31
2023-08-11T07:13:25.794Z,101961.81
2023-08-11T07:15:55.871Z,101963.53
2023-08-11T07:18:24.460Z,101962.53
2023-08-11T07:20:51.736Z,101969.53
2023-08-11T07:23:19.148Z,101967.56
2023-08-11T07:25:46.541Z,101962.81
2023-08-11T07:28:14.180Z,101973.22
2023-08-11T07:30:41.931Z,101969.44
2023-08-11T07:33:09.455Z,101969.09
2023-08-11T07:35:36.812Z,101971.53
2023-08-11T07:38:04.567Z,101977.59
2023-08-11T07:40:32.413Z,101974.72
2023-08-11T07:43:00.803Z,101970.00
2023-08-11T07:45:28.450Z,101975.28
2023-08-11T07:47:55.774Z,101975.25
2023-08-11T07:50:23.087Z,101977.84
2023-08-11T07:52:50.417Z,101970.66
2023-08-11T07:55:17.975Z,101959.03
2023-08-11T07:57:45.344Z,101968.75
2023-08-11T08:00:17.481Z,101962.41
2023-08-11T08:02:45.705Z,101963.22
2023-08-11T08:05:13.780Z,101957.78
2023-08-11T08:07:41.423Z,101958.56
2023-08-11T08:10:12.874Z,101952.16
2023-08-11T08:12:40.830Z,101945.72
2023-08-11T08:15:10.567Z,101956.28
2023-08-11T08:17:39.266Z,101955.28
2023-08-11T08:20:10.872Z,101965.91
2023-08-11T08:22:38.410Z,101958.63
2023-08-11T08:25:09.565Z,101956.72
2023-08-11T08:27:40.201Z,101953.94
2023-08-11T08:30:12.943Z,101955.59
2023-08-11T08:32:41.630Z,101951.06
2023-08-11T08:35:10.698Z,101955.41
2023-08-11T08:37:38.468Z,101952.66
2023-08-11T08:40:08.455Z,101959.69
2023-08-11T08:42:35.958Z,101951.56
2023-08-11T08:45:04.942Z,101946.94
2023-08-11T08:47:33.804Z,101952.19
2023-08-11T08:50:02.995Z,101952.09
2023-08-11T08:52:31.277Z,101945.72
2023-08-11T08:54:59.062Z,101942.88
2023-08-11T08:57:27.032Z,101943.63
2023-08-11T08:59:57.313Z,101940.78
2023-08-11T09:02:29.286Z,101939.75
2023-08-11T09:04:56.769Z,101940.47
2023-08-11T09:07:24.105Z,101947.41
2023-08-11T09:09:51.802Z,101946.38
2023-08-11T09:12:19.492Z,101937.19
2023-08-11T09:14:47.094Z,101936.16
2023-08-11T09:17:14.502Z,101940.50
2023-08-11T09:19:45.418Z,101932.22
2023-08-11T09:22:12.823Z,101930.28
2023-08-11T09:24:41.864Z,101924.75
2023-08-11T09:27:10.335Z,101930.81
2023-08-11T09:29:38.388Z,101928.72
2023-08-11T09:32:05.875Z,101924.00
2023-08-11T09:34:33.266Z,101928.16
2023-08-11T09:37:01.280Z,101929.69
2023-08-11T09:39:30.384Z,101923.16
2023-08-11T09:41:57.782Z,101930.88
2023-08-11T09:44:25.243Z,101924.34
2023-08-11T09:46:53.075Z,101934.00
2023-08-11T09:49:20.522Z,101913.16
2023-08-11T09:51:50.268Z,101926.38
2023-08-11T09:54:20.264Z,101927.91
2023-08-11T09:56:49.427Z,101920.41
2023-08-11T09:59:20.775Z,101920.94
2023-08-11T10:01:48.903Z,101922.53
2023-08-11T10:04:21.511Z,101926.84
2023-08-11T10:06:51.961Z,101923.94
2023-08-11T10:09:23.234Z,101928.31
2023-08-11T10:11:52.415Z,101923.69
2023-08-11T10:14:21.804Z,101916.34
2023-08-11T10:16:49.661Z,101911.63
2023-08-11T10:19:18.634Z,101917.56
2023-08-11T10:21:45.907Z,101906.59
2023-08-11T10:24:14.290Z,101906.34
2023-08-11T10:26:43.306Z,101897.88
2023-08-11T10:29:13.049Z,101904.78
2023-08-11T10:31:58.209Z,101899.94
2023-08-11T10:34:26.813Z,101906.00
2023-08-11T10:36:56.098Z,101911.06
2023-08-11T10:39:23.683Z,101905.63
2023-08-11T10:41:51.286Z,101905.41
2023-08-11T10:44:27.549Z,101897.88
2023-08-11T10:46:58.131Z,101897.47
2023-08-11T10:49:41.594Z,101903.25
2023-08-11T10:52:09.208Z,101898.38
2023-08-11T10:54:36.858Z,101898.81
2023-08-11T10:57:04.682Z,101891.41
2023-08-11T10:59:34.287Z,101893.25
2023-08-11T11:02:02.417Z,101897.88
2023-08-11T11:04:34.085Z,101897.94
2023-08-11T11:07:02.435Z,101889.72
2023-08-11T11:09:30.681Z,101894.72
2023-08-11T11:11:58.279Z,101890.88
2023-08-11T11:14:28.497Z,101891.72
2023-08-11T11:17:00.378Z,101882.75
2023-08-11T11:19:28.415Z,101881.97
2023-08-11T11:21:56.019Z,101887.38
2023-08-11T11:24:23.460Z,101886.63
2023-08-11T11:26:50.844Z,101882.97
2023-08-11T11:29:24.699Z,101872.91
2023-08-11T11:31:52.530Z,101868.97
2023-08-11T11:34:20.786Z,101873.88
2023-08-11T11:36:48.512Z,101857.97
2023-08-11T11:39:15.916Z,101861.78
2023-08-11T11:41:43.254Z,101863.97
2023-08-11T11:44:10.639Z,101862.59
2023-08-11T11:46:38.058Z,101858.56
2023-08-11T11:49:19.628Z,101857.16
2023-08-11T11:51:56.035Z,101851.19
2023-08-11T11:54:23.360Z,101850.91
2023-08-11T11:57:03.432Z,101849.94
2023-08-11T11:59:33.544Z,101846.44
2023-08-11T12:02:02.309Z,101852.56
2023-08-11T12:04:30.350Z,101843.34
2023-08-11T12:06:58.059Z,101845.66
2023-08-11T12:09:25.529Z,101842.75
2023-08-11T12:11:56.377Z,101848.72
2023-08-11T12:14:27.241Z,101848.50
2023-08-11T12:16:54.606Z,101846.31
2023-08-11T12:19:22.146Z,101839.31
2023-08-11T12:21:51.284Z,101845.28
2023-08-11T12:24:19.258Z,101845.66
2023-08-11T12:26:46.643Z,101849.19
2023-08-11T12:29:13.940Z,101842.59
2023-08-11T12:31:41.216Z,101847.69
2023-08-11T12:34:08.456Z,101841.09
2023-08-11T12:36:35.795Z,101841.63
2023-08-11T12:39:04.295Z,101836.00
2023-08-11T12:41:31.713Z,101846.56
2023-08-11T12:43:59.250Z,101840.09
2023-08-11T12:46:26.618Z,101836.19
2023-08-11T12:48:53.912Z,101826.25
2023-08-11T12:51:21.303Z,101835.97
2023-08-11T12:53:48.676Z,101829.56
2023-08-11T12:56:16.023Z,101837.63
2023-08-11T12:58:43.909Z,101833.97
2023-08-11T13:01:12.898Z,101828.28
2023-08-11T13:03:41.901Z,101829.94
2023-08-11T13:06:12.190Z,101831.19
2023-08-11T13:08:39.339Z,101824.16
2023-08-11T13:11:06.608Z,101822.94
2023-08-11T13:13:33.966Z,101822.88
2023-08-11T13:16:01.338Z,101820.25
2023-08-11T13:18:28.662Z,101821.66
2023-08-11T13:20:56.001Z,101812.03
2023-08-11T13:23:23.558Z,101822.28
2023-08-11T13:25:50.901Z,101804.72
2023-08-11T13:28:18.719Z,101813.28
2023-08-11T13:30:46.029Z,101810.56
2023-08-11T13:33:13.440Z,101807.16
2023-08-11T13:35:40.673Z,101813.06
2023-08-11T13:38:08.414Z,101803.59
2023-08-11T13:40:35.780Z,101800.88
2023-08-11T13:43:05.412Z,101804.28
2023-08-11T13:45:32.769Z,101800.56
2023-08-11T13:48:00.088Z,101792.34
2023-08-11T13:50:27.455Z,101795.72
2023-08-11T13:52:54.806Z,101793.81
2023-08-11T13:55:22.120Z,101786.81
2023-08-11T13:57:49.578Z,101790.41
2023-08-11T14:00:17.361Z,101784.09
2023-08-11T14:02:44.660Z,101782.97
2023-08-11T14:05:12.129Z,101779.19
2023-08-11T14:07:39.587Z,101781.66
2023-08-11T14:10:07.699Z,101774.50
2023-08-11T14:12:35.040Z,101784.56
2023-08-11T14:15:02.797Z,101773.25
2023-08-11T14:17:30.272Z,101780.69
2023-08-11T14:19:57.723Z,101777.97
2023-08-11T14:22:25.123Z,101776.94
2023-08-11T14:24:54.754Z,101778.88
2023-08-11T14:27:23.662Z,101770.38
2023-08-11T14:29:50.986Z,101770.72
2023-08-11T14:32:24.501Z,101772.84
2023-08-11T14:34:53.873Z,101775.28
2023-08-11T14:37:22.180Z,101777.72
2023-08-11T14:39:49.551Z,101773.78
2023-08-11T14:42:17.991Z,101778.13
2023-08-11T14:44:45.409Z,101785.16
2023-08-11T14:47:16.169Z,101778.44
2023-08-11T14:49:45.106Z,101770.81
2023-08-11T14:52:14.159Z,101758.22
2023-08-11T14:54:42.229Z,101770.31
2023-08-11T14:57:13.756Z,101758.44
2023-08-11T14:59:41.300Z,101753.97
2023-08-11T15:02:09.528Z,101755.88
2023-08-11T15:04:37.591Z,101751.38
2023-08-11T15:07:05.149Z,101758.78
2023-08-11T15:09:32.712Z,101760.19
2023-08-11T15:12:00.139Z,101758.94
2023-08-11T15:14:27.485Z,101753.72
2023-08-11T15:16:55.123Z,101752.16
2023-08-11T15:19:23.304Z,101755.19
2023-08-11T15:21:50.590Z,101752.00
2023-08-11T15:24:17.996Z,101751.44
2023-08-11T15:26:45.555Z,101757.97
2023-08-11T15:29:13.033Z,101759.00
2023-08-11T15:31:40.467Z,101751.03
2023-08-11T15:34:07.949Z,101757.31
2023-08-11T15:36:35.210Z,101755.41
2023-08-11T15:39:02.551Z,101754.63
2023-08-11T15:41:30.046Z,101753.88
2023-08-11T15:43:57.338Z,101748.66
2023-08-11T15:46:24.779Z,101744.50
2023-08-11T15:48:53.659Z,101752.84
2023-08-11T15:51:21.274Z,101741.41
2023-08-11T15:53:48.657Z,101746.00
2023-08-11T15:56:15.951Z,101746.13
2023-08-11T15:58:43.249Z,101740.84
2023-08-11T16:01:10.597Z,101743.56
2023-08-11T16:03:38.023Z,101743.50
2023-08-11T16:06:06.801Z,101731.69
2023-08-11T16:08:34.296Z,101743.38
2023-08-11T16:11:01.810Z,101741.53
2023-08-11T16:13:29.183Z,101736.22
2023-08-11T16:15:56.614Z,101735.38
2023-08-11T16:18:23.957Z,101720.22
2023-08-11T16:20:51.346Z,101725.03
2023-08-11T16:23:18.637Z,101727.00
2023-08-11T16:25:46.095Z,101729.09
2023-08-11T16:28:15.777Z,101734.75
2023-08-11T16:30:43.409Z,101727.94
2023-08-11T16:33:11.300Z,101726.41
2023-08-11T16:35:38.885Z,101730.28
2023-08-11T16:38:06.359Z,101719.63
2023-08-11T16:40:34.210Z,101726.91
2023-08-11T16:43:02.226Z,101729.84
2023-08-11T16:45:29.802Z,101730.06
2023-08-11T16:47:57.321Z,101724.78
2023-08-11T16:50:25.137Z,101730.28
2023-08-11T16:52:54.534Z,101731.41
2023-08-11T16:55:22.898Z,101725.34
2023-08-11T16:57:50.724Z,101723.75
2023-08-11T17:00:18.308Z,101721.25
2023-08-11T17:02:45.896Z,101732.28
2023-08-11T17:05:13.337Z,101738.22
2023-08-11T17:07:41.830Z,101748.13
2023-08-11T17:10:09.676Z,101752.72
2023-08-11T17:12:37.495Z,101758.03
2023-08-11T17:15:06.013Z,101752.63
2023-08-11T17:17:33.388Z,101752.59
2023-08-11T17:20:00.832Z,101745.22
2023-08-11T17:22:28.214Z,101762.88
2023-08-11T17:24:58.990Z,101762.53
2023-08-11T17:27:26.379Z,101759.63
2023-08-11T17:29:53.704Z,101759.28
2023-08-11T17:32:21.375Z,101760.59
2023-08-11T17:34:57.858Z,101772.72
2023-08-11T17:37:25.876Z,101777.53
2023-08-11T17:39:53.344Z,101771.63
2023-08-11T17:42:20.805Z,101770.16
2023-08-11T17:44:48.152Z,101766.78
2023-08-11T17:47:15.560Z,101770.56
2023-08-11T17:49:43.263Z,101766.28
2023-08-11T17:52:10.875Z,101778.03
2023-08-11T17:54:39.196Z,101770.16
2023-08-11T17:57:06.853Z,101766.91
2023-08-11T17:59:35.673Z,101773.41
2023-08-11T18:02:03.026Z,101774.44
2023-08-11T18:04:30.387Z,101773.63
2023-08-11T18:06:57.804Z,101775.56
2023-08-11T18:09:25.185Z,101770.38
2023-08-11T18:11:53.226Z,101780.31
2023-08-11T18:14:20.580Z,101784.88
2023-08-11T18:16:48.008Z,101775.16
2023-08-11T18:19:15.447Z,101779.84
2023-08-11T18:21:42.924Z,101788.88
2023-08-11T18:24:10.517Z,101789.00
2023-08-11T18:26:37.991Z,101790.16
2023-08-11T18:29:05.715Z,101784.97
2023-08-11T18:31:33.133Z,101788.75
2023-08-11T18:34:03.857Z,101791.59
2023-08-11T18:36:32.588Z,101786.38
2023-08-11T18:39:00.175Z,101789.16
2023-08-11T18:41:27.533Z,101789.34
2023-08-11T18:43:54.797Z,101783.34
2023-08-11T18:46:22.330Z,101789.72
2023-08-11T18:48:49.984Z,101795.19
2023-08-11T18:51:17.608Z,101800.69
2023-08-11T18:53:46.530Z,101798.16
2023-08-11T18:56:13.910Z,101800.94
2023-08-11T18:58:41.230Z,101803.72
2023-08-11T19:01:08.523Z,101799.47
2023-08-11T19:03:36.185Z,101796.91
2023-08-11T19:06:04.075Z,101799.75
2023-08-11T19:08:31.770Z,101799.84
2023-08-11T19:10:59.246Z,101806.22
2023-08-11T19:13:27.297Z,101807.19
2023-08-11T19:15:54.694Z,101815.31
2023-08-11T19:18:22.252Z,101816.31
2023-08-11T19:20:49.929Z,101827.09
2023-08-11T19:23:17.357Z,101815.56
2023-08-11T19:25:44.810Z,101813.00
2023-08-11T19:28:13.249Z,101804.06
2023-08-11T19:30:40.853Z,101806.84
2023-08-11T19:33:11.426Z,101814.06
2023-08-11T19:35:38.938Z,101815.03
2023-08-11T19:38:06.317Z,101813.38
2023-08-11T19:40:33.753Z,101819.69
2023-08-11T19:43:02.310Z,101813.50
2023-08-11T19:45:29.866Z,101817.16
2023-08-11T19:47:57.257Z,101810.09
2023-08-11T19:50:24.660Z,101811.97
2023-08-11T19:52:53.158Z,101808.47
2023-08-11T19:55:20.479Z,101810.31
2023-08-11T19:57:47.859Z,101815.72
2023-08-11T20:00:15.659Z,101814.00
2023-08-11T20:02:43.133Z,101816.75
2023-08-11T20:05:11.276Z,101819.47
2023-08-11T20:07:38.845Z,101821.31
2023-08-11T20:10:07.108Z,101822.25
2023-08-11T20:12:34.843Z,101813.38
2023-08-11T20:15:02.184Z,101817.91
2023-08-11T20:17:29.574Z,101818.03
2023-08-11T20:19:57.082Z,101819.88
2023-08-11T20:22:24.413Z,101819.03
2023-08-11T20:24:51.847Z,101816.41
2023-08-11T20:27:22.016Z,101819.16
2023-08-11T20:29:50.414Z,101821.06
2023-08-11T20:32:18.023Z,101815.75
2023-08-11T20:34:45.450Z,101817.59
2023-08-11T20:37:13.085Z,101820.28
2023-08-11T20:39:43.702Z,101815.84
2023-08-11T20:42:11.226Z,101820.34
2023-08-11T20:44:38.624Z,101816.81
2023-08-11T20:47:06.144Z,101820.44
2023-08-11T20:49:33.483Z,101815.13
2023-08-11T20:52:01.784Z,101810.69
2023-08-11T20:54:29.857Z,101815.19
2023-08-11T20:57:00.070Z,101814.34
2023-08-11T20:59:28.153Z,101802.78
2023-08-11T21:01:56.926Z,101801.97
2023-08-11T21:04:24.423Z,101799.31
2023-08-11T21:06:51.831Z,101797.63
2023-08-11T21:09:19.489Z,101791.44
2023-08-11T21:11:46.891Z,101793.28
2023-08-11T21:14:14.252Z,101792.41
2023-08-11T21:16:42.315Z,101788.03
2023-08-11T21:19:09.798Z,101790.72
2023-08-11T21:21:37.380Z,101786.31
2023-08-11T21:24:05.492Z,101793.47
2023-08-11T21:26:33.030Z,101782.88
2023-08-11T21:29:00.374Z,101791.78
2023-08-11T21:31:28.149Z,101782.91
2023-08-11T21:34:00.806Z,101783.78
2023-08-11T21:36:28.580Z,101780.28
2023-08-11T21:38:56.499Z,101777.66
2023-08-11T21:41:23.851Z,101789.25
2023-08-11T21:43:51.392Z,101789.28
2023-08-11T21:46:18.899Z,101783.94
2023-08-11T21:48:46.239Z,101790.22
2023-08-11T21:51:14.689Z,101784.03
2023-08-11T21:53:42.372Z,101785.81
2023-08-11T21:56:10.068Z,101784.06
2023-08-11T21:58:38.337Z,101790.31
2023-08-11T22:01:05.771Z,101785.00
2023-08-11T22:03:33.089Z,101785.91
2023-08-11T22:06:00.411Z,101773.50
2023-08-11T22:08:27.873Z,101768.16
2023-08-11T22:10:55.296Z,101770.00
2023-08-11T22:13:22.641Z,101766.47
2023-08-11T22:15:51.006Z,101768.28
2023-08-11T22:18:18.443Z,101766.50
2023-08-11T22:20:45.817Z,101769.28
2023-08-11T22:23:13.231Z,101758.63
2023-08-11T22:25:40.427Z,101755.09
2023-08-11T22:28:08.038Z,101764.06
2023-08-11T22:30:36.135Z,101761.44
2023-08-11T22:33:03.919Z,101756.09
2023-08-11T22:35:32.205Z,101752.59
2023-08-11T22:37:59.585Z,101753.47
2023-08-11T22:40:26.951Z,101757.06
2023-08-11T22:42:54.402Z,101757.09
2023-08-11T22:45:22.653Z,101756.25
2023-08-11T22:47:51.165Z,101760.72
2023-08-11T22:50:18.429Z,101752.72
2023-08-11T22:52:46.382Z,101754.50
2023-08-11T22:55:13.909Z,101756.28
2023-08-11T22:57:42.514Z,101752.78
2023-08-11T23:00:12.055Z,101756.38
2023-08-11T23:02:40.561Z,101763.50
2023-08-11T23:05:09.385Z,101767.09
2023-08-11T23:07:39.264Z,101762.63
2023-08-11T23:10:07.148Z,101755.59
2023-08-11T23:12:34.607Z,101761.81
2023-08-11T23:15:02.255Z,101760.97
2023-08-11T23:17:33.939Z,101753.88
2023-08-11T23:20:02.050Z,101737.88
2023-08-11T23:22:29.408Z,101738.78
2023-08-11T23:24:56.826Z,101739.72
2023-08-11T23:27:31.939Z,101745.06
2023-08-11T23:30:00.776Z,101740.59
2023-08-11T23:32:33.693Z,101742.38
2023-08-11T23:35:01.347Z,101740.59
2023-08-11T23:37:28.925Z,101733.50
2023-08-11T23:39:56.802Z,101739.72
2023-08-11T23:42:28.381Z,101735.31
2023-08-11T23:44:56.066Z,101736.19
2023-08-11T23:47:23.514Z,101729.97
2023-08-11T23:49:50.876Z,101731.75
2023-08-11T23:52:19.595Z,101730.00
2023-08-11T23:54:53.465Z,101732.66
2023-08-11T23:57:23.618Z,101722.00
2023-08-11T23:59:50.877Z,101727.34
